createdAt,value
2023-02-17T00:01:30.434Z,3.92
2023-02-17T00:03:59.137Z,4.50
2023-02-17T00:06:29.448Z,4.40
2023-02-17T00:08:59.613Z,4.40
2023-02-17T00:11:31.087Z,4.45
2023-02-17T00:14:00.456Z,4.68
2023-02-17T00:16:29.370Z,4.65
2023-02-17T00:18:59.147Z,5.13
2023-02-17T00:21:29.562Z,4.40
2023-02-17T00:24:00.464Z,4.20
2023-02-17T00:26:28.836Z,3.60
2023-02-17T00:28:56.918Z,3.50
2023-02-17T00:31:25.313Z,3.28
2023-02-17T00:33:56.017Z,2.90
2023-02-17T00:36:25.025Z,2.90
2023-02-17T00:38:55.426Z,3.30
2023-02-17T00:41:25.577Z,3.17
2023-02-17T00:43:53.594Z,3.05
2023-02-17T00:46:21.883Z,2.95
2023-02-17T00:48:50.508Z,3.20
2023-02-17T00:51:19.337Z,2.63
2023-02-17T00:53:47.644Z,2.55
2023-02-17T00:56:15.889Z,1.92
2023-02-17T00:58:46.275Z,2.45
2023-02-17T01:01:15.034Z,2.80
2023-02-17T01:03:43.278Z,2.50
2023-02-17T01:06:22.248Z,2.10
2023-02-17T01:08:50.313Z,2.00
2023-02-17T01:11:19.474Z,2.20
2023-02-17T01:13:48.920Z,2.40
2023-02-17T01:16:19.301Z,2.45
2023-02-17T01:18:47.333Z,2.60
2023-02-17T01:21:19.550Z,2.23
2023-02-17T01:23:50.371Z,1.90
2023-02-17T01:26:20.577Z,2.33
2023-02-17T01:28:50.852Z,2.60
2023-02-17T01:31:19.538Z,3.25
2023-02-17T01:33:47.896Z,2.80
2023-02-17T01:36:18.020Z,3.00
2023-02-17T01:38:46.657Z,3.33
2023-02-17T01:41:16.106Z,3.67
2023-02-17T01:43:44.259Z,3.70
2023-02-17T01:46:13.671Z,3.87
2023-02-17T01:48:47.674Z,3.17
2023-02-17T01:51:19.913Z,2.40
2023-02-17T01:53:54.371Z,2.80
2023-02-17T01:56:24.158Z,2.70
2023-02-17T01:58:57.112Z,3.15
2023-02-17T02:01:26.614Z,3.58
2023-02-17T02:03:55.408Z,3.30
2023-02-17T02:06:26.736Z,3.05
2023-02-17T02:08:59.821Z,3.88
2023-02-17T02:11:27.840Z,3.70
2023-02-17T02:13:56.111Z,3.50
2023-02-17T02:16:31.451Z,2.95
2023-02-17T02:19:04.661Z,3.17
2023-02-17T02:22:11.591Z,3.40
2023-02-17T02:24:52.640Z,2.97
2023-02-17T02:27:47.148Z,3.00
2023-02-17T02:30:50.652Z,2.85
2023-02-17T02:33:27.117Z,2.60
2023-02-17T02:36:00.486Z,3.08
2023-02-17T02:38:32.788Z,4.00
2023-02-17T02:41:08.926Z,3.53
2023-02-17T02:43:37.221Z,3.85
2023-02-17T02:46:05.891Z,3.60
2023-02-17T02:48:36.218Z,3.60
2023-02-17T02:51:26.389Z,3.58
2023-02-17T02:54:19.188Z,3.78
2023-02-17T02:57:00.598Z,3.78
2023-02-17T02:59:39.627Z,3.40
2023-02-17T03:02:18.868Z,3.90
2023-02-17T03:04:57.377Z,3.80
2023-02-17T03:07:29.675Z,3.55
2023-02-17T03:10:00.568Z,3.35
2023-02-17T03:12:29.729Z,3.90
2023-02-17T03:15:02.602Z,3.90
2023-02-17T03:17:32.560Z,3.00
2023-02-17T03:20:03.714Z,4.40
2023-02-17T03:22:36.667Z,5.27
2023-02-17T03:25:05.594Z,4.95
2023-02-17T03:27:33.780Z,4.30
2023-02-17T03:30:02.028Z,3.53
2023-02-17T03:32:30.110Z,3.73
2023-02-17T03:34:58.201Z,3.20
2023-02-17T03:37:27.939Z,3.60
2023-02-17T03:39:55.902Z,3.50
2023-02-17T03:42:24.381Z,3.65
2023-02-17T03:44:52.394Z,3.97
2023-02-17T03:47:20.381Z,3.78
2023-02-17T03:49:48.415Z,4.20
2023-02-17T03:52:16.447Z,4.00
2023-02-17T03:54:45.932Z,4.70
2023-02-17T03:57:14.033Z,4.28
2023-02-17T03:59:42.104Z,3.28
2023-02-17T04:02:10.110Z,4.13
2023-02-17T04:04:39.244Z,4.37
2023-02-17T04:07:07.332Z,4.60
2023-02-17T04:09:35.334Z,3.83
2023-02-17T04:12:05.135Z,3.90
2023-02-17T04:14:33.199Z,4.35
2023-02-17T04:17:01.285Z,4.00
2023-02-17T04:19:29.351Z,3.45
2023-02-17T04:21:57.459Z,3.40
2023-02-17T04:24:25.476Z,3.08
2023-02-17T04:26:53.601Z,2.92
2023-02-17T04:29:23.120Z,3.80
2023-02-17T04:31:51.235Z,3.53
2023-02-17T04:34:19.449Z,3.80
2023-02-17T04:36:47.507Z,3.83
2023-02-17T04:39:15.837Z,3.75
2023-02-17T04:41:43.919Z,3.57
2023-02-17T04:44:11.967Z,3.20
2023-02-17T04:46:41.465Z,3.25
2023-02-17T04:49:10.238Z,3.22
2023-02-17T04:51:38.331Z,3.53
2023-02-17T04:54:06.508Z,3.30
2023-02-17T04:56:34.627Z,2.73
2023-02-17T04:59:02.637Z,2.65
2023-02-17T05:01:30.658Z,2.63
2023-02-17T05:04:00.209Z,2.57
2023-02-17T05:06:28.233Z,2.80
2023-02-17T05:08:56.301Z,2.35
2023-02-17T05:11:24.282Z,2.03
2023-02-17T05:13:52.224Z,2.28
2023-02-17T05:16:20.265Z,4.90
2023-02-17T05:18:48.273Z,4.90
2023-02-17T05:21:17.711Z,5.65
2023-02-17T05:23:45.750Z,4.60
2023-02-17T05:26:13.780Z,4.40
2023-02-17T05:28:41.802Z,4.63
2023-02-17T05:31:10.804Z,5.60
2023-02-17T05:33:38.949Z,4.57
2023-02-17T05:36:10.063Z,4.67
2023-02-17T05:38:40.581Z,4.30
2023-02-17T05:41:08.827Z,4.03
2023-02-17T05:43:36.846Z,4.30
2023-02-17T05:46:06.073Z,3.50
2023-02-17T05:48:35.120Z,4.20
2023-02-17T05:51:03.431Z,3.85
2023-02-17T05:53:31.664Z,4.00
2023-02-17T05:56:01.122Z,3.40
2023-02-17T05:58:29.292Z,3.75
2023-02-17T06:00:57.350Z,3.30
2023-02-17T06:03:25.365Z,3.58
2023-02-17T06:05:53.462Z,3.23
2023-02-17T06:08:21.462Z,3.77
2023-02-17T06:10:49.422Z,3.90
2023-02-17T06:13:18.905Z,3.80
2023-02-17T06:15:47.685Z,3.30
2023-02-17T06:18:16.600Z,3.10
2023-02-17T06:20:44.699Z,2.78
2023-02-17T06:23:12.896Z,2.70
2023-02-17T06:25:40.904Z,2.63
2023-02-17T06:28:09.012Z,3.10
2023-02-17T06:30:38.466Z,4.30
2023-02-17T06:33:06.593Z,4.93
2023-02-17T06:35:34.685Z,8.90
2023-02-17T06:38:02.916Z,7.70
2023-02-17T06:40:31.006Z,5.18
2023-02-17T06:42:59.095Z,5.25
2023-02-17T06:45:27.209Z,6.32
2023-02-17T06:47:56.696Z,5.07
2023-02-17T06:50:24.830Z,5.30
2023-02-17T06:52:52.937Z,4.32
2023-02-17T06:55:20.950Z,4.80
2023-02-17T06:57:49.995Z,4.35
2023-02-17T07:00:18.652Z,5.00
2023-02-17T07:02:46.759Z,4.67
2023-02-17T07:05:16.295Z,5.22
2023-02-17T07:07:44.438Z,4.93
2023-02-17T07:10:13.466Z,5.63
2023-02-17T07:12:41.633Z,4.20
2023-02-17T07:15:12.261Z,4.77
2023-02-17T07:17:40.682Z,3.97
2023-02-17T07:20:10.266Z,4.05
2023-02-17T07:22:39.873Z,3.72
2023-02-17T07:25:08.657Z,3.70
2023-02-17T07:27:37.290Z,3.47
2023-02-17T07:30:06.735Z,3.08
2023-02-17T07:32:35.711Z,3.50
2023-02-17T07:35:03.818Z,3.80
2023-02-17T07:37:31.818Z,3.33
2023-02-17T07:40:01.193Z,3.70
2023-02-17T07:42:29.477Z,3.58
2023-02-17T07:44:57.404Z,5.25
2023-02-17T07:47:25.503Z,3.40
2023-02-17T07:49:53.475Z,3.60
2023-02-17T07:52:21.496Z,4.20
2023-02-17T07:54:49.646Z,4.80
2023-02-17T07:57:19.203Z,5.50
2023-02-17T07:59:48.219Z,6.15
2023-02-17T08:02:16.504Z,5.47
2023-02-17T08:04:44.753Z,6.40
2023-02-17T08:07:12.736Z,13.00
2023-02-17T08:09:58.378Z,11.02
2023-02-17T08:12:53.636Z,7.20
2023-02-17T08:15:21.835Z,7.57
2023-02-17T08:17:51.107Z,7.03
2023-02-17T08:20:19.613Z,6.20
2023-02-17T08:22:47.656Z,5.70
2023-02-17T08:25:15.664Z,4.70
2023-02-17T08:27:45.200Z,4.53
2023-02-17T08:30:13.757Z,7.43
2023-02-17T08:32:41.769Z,4.90
2023-02-17T08:35:10.558Z,5.20
2023-02-17T08:37:38.539Z,4.10
2023-02-17T08:40:07.696Z,4.38
2023-02-17T08:42:35.760Z,3.90
2023-02-17T08:45:05.371Z,3.63
2023-02-17T08:47:33.429Z,4.00
2023-02-17T08:50:01.424Z,4.03
2023-02-17T08:52:29.511Z,4.82
2023-02-17T08:54:57.557Z,4.40
2023-02-17T08:57:26.660Z,4.82
2023-02-17T08:59:54.685Z,4.63
2023-02-17T09:02:24.171Z,4.85
2023-02-17T09:04:52.222Z,4.35
2023-02-17T09:07:20.354Z,3.90
2023-02-17T09:09:48.475Z,3.83
2023-02-17T09:12:16.608Z,3.45
2023-02-17T09:14:44.838Z,4.15
2023-02-17T09:17:12.967Z,3.95
2023-02-17T09:19:42.445Z,3.60
2023-02-17T09:22:17.555Z,3.67
2023-02-17T09:24:54.183Z,3.33
2023-02-17T09:27:22.205Z,3.70
2023-02-17T09:29:50.222Z,3.85
2023-02-17T09:32:18.370Z,3.70
2023-02-17T09:34:54.552Z,3.28
2023-02-17T09:37:23.640Z,3.33
2023-02-17T09:39:51.926Z,4.05
2023-02-17T09:42:22.518Z,3.50
2023-02-17T09:44:55.158Z,3.70
2023-02-17T09:47:28.383Z,3.10
2023-02-17T09:50:03.010Z,2.88
2023-02-17T09:52:38.225Z,3.20
2023-02-17T09:55:09.605Z,3.17
2023-02-17T09:57:43.022Z,2.55
2023-02-17T10:00:17.188Z,2.20
2023-02-17T10:02:52.943Z,2.78
2023-02-17T10:05:26.179Z,4.75
2023-02-17T10:07:59.208Z,3.20
2023-02-17T10:10:32.485Z,2.97
2023-02-17T10:13:03.514Z,2.92
2023-02-17T10:15:36.943Z,2.75
2023-02-17T10:18:13.157Z,3.03
2023-02-17T10:20:47.620Z,4.05
2023-02-17T10:23:19.981Z,3.72
2023-02-17T10:26:14.217Z,4.25
2023-02-17T10:28:51.555Z,4.30
2023-02-17T10:31:28.381Z,4.60
2023-02-17T10:34:04.182Z,3.95
2023-02-17T10:36:44.743Z,4.03
2023-02-17T10:39:17.083Z,4.40
2023-02-17T10:41:49.497Z,3.70
2023-02-17T10:44:22.211Z,3.53
2023-02-17T10:46:52.986Z,4.32
2023-02-17T10:49:26.610Z,3.50
2023-02-17T10:51:57.304Z,3.72
2023-02-17T10:54:33.419Z,2.80
2023-02-17T10:57:04.947Z,3.45
2023-02-17T10:59:36.865Z,3.30
2023-02-17T11:02:18.295Z,3.00
2023-02-17T11:04:48.135Z,2.80
2023-02-17T11:07:19.598Z,2.70
2023-02-17T11:09:50.566Z,2.97
2023-02-17T11:12:23.543Z,2.50
2023-02-17T11:14:54.904Z,2.28
2023-02-17T11:17:28.460Z,2.60
2023-02-17T11:19:59.300Z,2.03
2023-02-17T11:22:35.471Z,2.28
2023-02-17T11:25:06.756Z,2.70
2023-02-17T11:27:34.825Z,2.50
2023-02-17T11:30:11.077Z,2.80
2023-02-17T11:32:39.472Z,2.00
2023-02-17T11:35:23.701Z,2.00
2023-02-17T11:37:54.116Z,1.85
2023-02-17T11:40:27.462Z,2.15
2023-02-17T11:42:59.800Z,2.10
2023-02-17T11:45:31.366Z,2.20
2023-02-17T11:48:21.873Z,2.08
2023-02-17T11:51:01.513Z,2.30
2023-02-17T11:53:47.942Z,2.17
2023-02-17T11:56:19.237Z,1.83
2023-02-17T11:59:14.136Z,2.03
2023-02-17T12:01:59.738Z,1.75
2023-02-17T12:04:30.931Z,1.83
2023-02-17T12:07:19.538Z,1.88
2023-02-17T12:09:57.951Z,1.92
2023-02-17T12:12:38.531Z,1.98
2023-02-17T12:15:25.374Z,1.80
2023-02-17T12:18:00.623Z,2.00
2023-02-17T12:20:47.570Z,2.00
2023-02-17T12:23:28.800Z,1.88
2023-02-17T12:26:04.820Z,1.90
2023-02-17T12:28:44.976Z,2.20
2023-02-17T12:31:22.939Z,1.92
2023-02-17T12:33:58.550Z,1.80
2023-02-17T12:36:32.020Z,2.20
2023-02-17T12:39:03.484Z,2.10
2023-02-17T12:41:37.065Z,2.15
2023-02-17T12:44:11.983Z,2.20
2023-02-17T12:46:44.402Z,2.40
2023-02-17T12:49:17.508Z,2.40
2023-02-17T12:51:50.992Z,2.05
2023-02-17T12:54:24.813Z,2.35
2023-02-17T12:57:14.632Z,2.28
2023-02-17T12:59:44.644Z,2.03
2023-02-17T13:02:15.185Z,2.25
2023-02-17T13:04:45.230Z,2.15
2023-02-17T13:07:41.120Z,2.03
2023-02-17T13:10:19.629Z,1.85
2023-02-17T13:12:59.883Z,1.77
2023-02-17T13:15:35.468Z,2.28
2023-02-17T13:18:06.165Z,1.92
2023-02-17T13:20:46.226Z,2.15
2023-02-17T13:23:16.103Z,2.42
2023-02-17T13:25:44.114Z,2.50
2023-02-17T13:28:36.647Z,2.10
2023-02-17T13:31:15.788Z,1.80
2023-02-17T13:33:47.744Z,2.00
2023-02-17T13:36:20.687Z,2.10
2023-02-17T13:39:01.732Z,1.90
2023-02-17T13:41:34.772Z,1.80
2023-02-17T13:44:25.986Z,2.00
2023-02-17T13:46:56.197Z,1.60
2023-02-17T13:49:27.773Z,1.65
2023-02-17T13:51:56.151Z,1.80
2023-02-17T13:54:24.392Z,2.00
2023-02-17T13:56:53.547Z,1.70
2023-02-17T13:59:28.504Z,1.60
2023-02-17T14:01:56.812Z,1.70
2023-02-17T14:04:28.418Z,1.60
2023-02-17T14:06:59.578Z,1.35
2023-02-17T14:09:30.752Z,1.60
2023-02-17T14:12:02.154Z,1.50
2023-02-17T14:14:34.030Z,1.60
2023-02-17T14:17:04.402Z,1.42
2023-02-17T14:19:44.024Z,2.00
2023-02-17T14:22:25.259Z,1.67
2023-02-17T14:25:00.766Z,1.70
2023-02-17T14:27:28.822Z,2.20
2023-02-17T14:29:58.290Z,3.03
2023-02-17T14:32:35.240Z,2.28
2023-02-17T14:35:20.398Z,1.83
2023-02-17T14:37:48.796Z,2.83
2023-02-17T14:40:19.135Z,2.50
2023-02-17T14:42:47.506Z,2.50
2023-02-17T14:45:18.120Z,2.50
2023-02-17T14:47:46.665Z,2.65
2023-02-17T14:50:16.216Z,2.67
2023-02-17T14:52:47.031Z,2.60
2023-02-17T14:55:32.606Z,2.38
2023-02-17T14:58:00.712Z,2.17
2023-02-17T15:00:30.143Z,1.95
2023-02-17T15:02:58.135Z,2.20
2023-02-17T15:05:26.412Z,2.55
2023-02-17T15:07:54.479Z,2.40
2023-02-17T15:10:28.030Z,2.75
2023-02-17T15:12:57.354Z,2.30
2023-02-17T15:15:25.463Z,2.60
2023-02-17T15:17:54.989Z,2.65
2023-02-17T15:20:23.103Z,2.53
2023-02-17T15:22:52.918Z,2.58
2023-02-17T15:25:23.492Z,2.63
2023-02-17T15:27:51.949Z,3.10
2023-02-17T15:30:21.448Z,2.78
2023-02-17T15:32:49.746Z,2.25
2023-02-17T15:35:22.246Z,2.80
2023-02-17T15:37:50.332Z,2.65
2023-02-17T15:40:20.028Z,2.70
2023-02-17T15:42:52.362Z,2.75
2023-02-17T15:45:20.896Z,2.65
2023-02-17T15:47:50.298Z,2.70
2023-02-17T15:50:23.053Z,2.72
2023-02-17T15:52:52.270Z,2.63
2023-02-17T15:55:23.661Z,2.90
2023-02-17T15:57:54.649Z,2.50
2023-02-17T16:00:25.966Z,3.40
2023-02-17T16:02:54.908Z,2.92
2023-02-17T16:05:27.292Z,2.60
2023-02-17T16:07:56.215Z,2.67
2023-02-17T16:10:27.556Z,2.72
2023-02-17T16:12:58.436Z,3.33
2023-02-17T16:15:27.653Z,3.03
2023-02-17T16:17:56.103Z,2.80
2023-02-17T16:20:27.228Z,2.60
2023-02-17T16:22:55.569Z,2.65
2023-02-17T16:25:24.285Z,2.53
2023-02-17T16:27:53.441Z,2.72
2023-02-17T16:30:24.534Z,2.55
2023-02-17T16:32:53.021Z,2.47
2023-02-17T16:35:23.715Z,2.80
2023-02-17T16:37:57.108Z,2.60
2023-02-17T16:40:28.043Z,2.42
2023-02-17T16:42:56.267Z,2.50
2023-02-17T16:45:32.262Z,2.83
2023-02-17T16:48:02.747Z,2.72
2023-02-17T16:50:33.637Z,2.45
2023-02-17T16:53:05.785Z,2.50
2023-02-17T16:55:36.572Z,2.50
2023-02-17T16:58:05.883Z,2.55
2023-02-17T17:00:35.332Z,2.20
2023-02-17T17:03:03.591Z,2.35
2023-02-17T17:05:34.209Z,3.20
2023-02-17T17:08:04.821Z,2.72
2023-02-17T17:10:36.563Z,2.90
2023-02-17T17:13:07.238Z,2.30
2023-02-17T17:15:37.127Z,2.30
2023-02-17T17:18:08.962Z,2.40
2023-02-17T17:20:41.822Z,2.55
2023-02-17T17:23:15.708Z,2.42
2023-02-17T17:25:46.970Z,2.42
2023-02-17T17:28:17.037Z,2.70
2023-02-17T17:30:47.729Z,2.53
2023-02-17T17:33:24.412Z,2.63
2023-02-17T17:35:54.841Z,2.40
2023-02-17T17:38:24.434Z,2.67
2023-02-17T17:40:53.652Z,3.20
2023-02-17T17:43:23.482Z,2.55
2023-02-17T17:45:53.023Z,2.70
2023-02-17T17:48:21.087Z,2.42
2023-02-17T17:50:50.043Z,2.35
2023-02-17T17:53:18.178Z,2.08
2023-02-17T17:55:48.140Z,2.47
2023-02-17T17:58:17.279Z,2.10
2023-02-17T18:00:45.434Z,2.42
2023-02-17T18:03:13.528Z,2.30
2023-02-17T18:05:41.844Z,2.05
2023-02-17T18:08:10.487Z,2.20
2023-02-17T18:10:40.172Z,2.53
2023-02-17T18:13:11.652Z,2.95
2023-02-17T18:15:41.286Z,2.03
2023-02-17T18:18:09.481Z,3.08
2023-02-17T18:20:37.560Z,2.50
2023-02-17T18:23:05.797Z,1.92
2023-02-17T18:25:34.269Z,2.00
2023-02-17T18:28:02.268Z,2.30
2023-02-17T18:30:31.808Z,2.45
2023-02-17T18:32:59.898Z,3.20
2023-02-17T18:35:28.093Z,2.15
2023-02-17T18:37:56.216Z,4.22
2023-02-17T18:40:25.996Z,6.53
2023-02-17T18:42:54.060Z,6.13
2023-02-17T18:45:23.691Z,5.13
2023-02-17T18:47:53.177Z,3.72
2023-02-17T18:50:21.430Z,3.72
2023-02-17T18:52:49.386Z,2.78
2023-02-17T18:55:17.392Z,4.72
2023-02-17T18:57:45.901Z,1.98
2023-02-17T19:00:15.620Z,2.30
2023-02-17T19:02:43.664Z,2.50
2023-02-17T19:05:13.720Z,2.47
2023-02-17T19:07:41.727Z,3.30
2023-02-17T19:10:11.164Z,4.38
2023-02-17T19:12:39.289Z,2.63
2023-02-17T19:15:08.228Z,2.50
2023-02-17T19:17:36.264Z,2.30
2023-02-17T19:20:05.205Z,2.08
2023-02-17T19:22:37.566Z,2.00
2023-02-17T19:25:06.441Z,1.80
2023-02-17T19:27:34.534Z,1.85
2023-02-17T19:30:02.617Z,1.88
2023-02-17T19:32:30.639Z,1.83
2023-02-17T19:34:58.644Z,4.93
2023-02-17T19:37:26.662Z,2.30
2023-02-17T19:39:56.419Z,2.10
2023-02-17T19:42:24.765Z,2.20
2023-02-17T19:44:52.783Z,2.80
2023-02-17T19:47:20.831Z,2.70
2023-02-17T19:49:48.832Z,1.90
2023-02-17T19:52:16.912Z,1.70
2023-02-17T19:54:45.039Z,5.00
2023-02-17T19:57:18.477Z,5.13
2023-02-17T19:59:46.852Z,4.50
2023-02-17T20:02:15.598Z,11.88
2023-02-17T20:04:44.646Z,5.20
2023-02-17T20:07:12.851Z,3.42
2023-02-17T20:09:40.921Z,3.08
2023-02-17T20:12:10.503Z,12.35
2023-02-17T20:14:40.059Z,7.35
2023-02-17T20:17:08.090Z,4.50
2023-02-17T20:19:38.708Z,3.00
2023-02-17T20:22:07.718Z,3.00
2023-02-17T20:24:38.014Z,3.13
2023-02-17T20:27:06.164Z,3.13
2023-02-17T20:29:35.506Z,3.00
2023-02-17T20:32:05.631Z,4.65
2023-02-17T20:34:35.802Z,4.05
2023-02-17T20:37:04.002Z,4.28
2023-02-17T20:39:32.087Z,4.15
2023-02-17T20:42:00.803Z,4.20
2023-02-17T20:44:28.955Z,4.45
2023-02-17T20:46:57.775Z,3.92
2023-02-17T20:49:27.676Z,4.20
2023-02-17T20:51:55.867Z,4.47
2023-02-17T20:54:25.670Z,3.55
2023-02-17T20:56:53.938Z,3.40
2023-02-17T20:59:22.058Z,3.50
2023-02-17T21:01:50.656Z,3.08
2023-02-17T21:04:18.844Z,3.10
2023-02-17T21:06:48.249Z,3.60
2023-02-17T21:09:17.898Z,3.70
2023-02-17T21:11:46.648Z,3.75
2023-02-17T21:14:15.319Z,3.28
2023-02-17T21:16:43.301Z,3.80
2023-02-17T21:19:11.338Z,3.63
2023-02-17T21:21:41.207Z,3.97
2023-02-17T21:24:10.776Z,4.00
2023-02-17T21:26:39.062Z,3.20
2023-02-17T21:29:07.258Z,3.50
2023-02-17T21:31:36.169Z,3.92
2023-02-17T21:34:05.201Z,3.10
2023-02-17T21:36:33.471Z,4.00
2023-02-17T21:39:01.536Z,3.60
2023-02-17T21:41:32.575Z,3.85
2023-02-17T21:44:18.543Z,3.35
2023-02-17T21:46:47.172Z,3.65
2023-02-17T21:49:15.763Z,3.50
2023-02-17T21:51:43.800Z,3.60
2023-02-17T21:54:12.609Z,3.60
2023-02-17T21:56:42.046Z,3.42
2023-02-17T21:59:10.097Z,3.40
2023-02-17T22:01:38.202Z,3.45
2023-02-17T22:04:06.754Z,2.97
2023-02-17T22:06:36.879Z,3.60
2023-02-17T22:09:07.001Z,3.50
2023-02-17T22:11:37.142Z,3.95
2023-02-17T22:14:10.304Z,3.85
2023-02-17T22:16:39.379Z,3.20
2023-02-17T22:19:10.748Z,4.38
2023-02-17T22:21:39.899Z,4.70
2023-02-17T22:24:08.582Z,4.32
2023-02-17T22:26:36.713Z,3.60
2023-02-17T22:29:06.670Z,3.40
2023-02-17T22:31:35.349Z,3.63
2023-02-17T22:34:06.372Z,8.00
2023-02-17T22:36:38.356Z,7.38
2023-02-17T22:39:08.627Z,7.95
2023-02-17T22:41:38.916Z,3.97
2023-02-17T22:44:09.417Z,3.45
2023-02-17T22:46:37.675Z,2.92
2023-02-17T22:49:06.278Z,3.40
2023-02-17T22:51:36.892Z,2.90
2023-02-17T22:54:05.900Z,3.20
2023-02-17T22:56:34.705Z,2.90
2023-02-17T22:59:04.422Z,3.28
2023-02-17T23:01:36.634Z,2.97
2023-02-17T23:04:07.009Z,3.30
2023-02-17T23:06:37.517Z,3.72
2023-02-17T23:09:07.050Z,3.17
2023-02-17T23:11:54.357Z,3.17
2023-02-17T23:14:25.590Z,3.22
2023-02-17T23:16:57.264Z,3.33
2023-02-17T23:19:25.438Z,3.50
2023-02-17T23:21:55.272Z,3.70
2023-02-17T23:24:24.564Z,4.35
2023-02-17T23:26:53.515Z,4.07
2023-02-17T23:29:21.874Z,4.10
2023-02-17T23:31:50.131Z,3.42
2023-02-17T23:34:19.832Z,4.30
2023-02-17T23:36:48.150Z,3.40
2023-02-17T23:39:17.286Z,4.03
2023-02-17T23:41:45.724Z,3.45
2023-02-17T23:44:15.480Z,4.00
2023-02-17T23:46:45.326Z,3.72
2023-02-17T23:49:15.370Z,3.72
2023-02-17T23:51:46.289Z,3.65
2023-02-17T23:54:15.034Z,3.72
2023-02-17T23:56:43.065Z,4.05
2023-02-17T23:59:11.160Z,3.90
